Time;durP1;ratioP1;P1;durP2;ratioP2;P2;SDS_P1;SDS_P2;PMS_P1;PMS_P2;Temp;Humidity;BMP_temperature;BMP_pressure;BME280_temperature;BME280_humidity;BME280_pressure;Samples;Min_cycle;Max_cycle;Signal;HPM_P1;HPM_P2
2023/03/09 00:02:19;;;;;;;21.25;18.95;;;;;;;1.30;100.00;98857.44;5030874;28;20445;-75
2023/03/09 00:04:45;;;;;;;20.85;18.65;;;;;;;1.30;100.00;98837.94;5033029;28;20041;-75
2023/03/09 00:07:10;;;;;;;24.05;19.67;;;;;;;1.27;100.00;98833.03;5020976;28;20034;-76
2023/03/09 00:09:35;;;;;;;22.00;19.83;;;;;;;1.25;100.00;98827.94;5023418;28;20041;-75
2023/03/09 00:12:01;;;;;;;21.50;19.20;;;;;;;1.30;100.00;98824.63;5013989;28;20033;-75
2023/03/09 00:14:27;;;;;;;21.58;19.27;;;;;;;1.28;100.00;98845.34;5031102;28;20128;-74
2023/03/09 00:16:52;;;;;;;21.13;18.83;;;;;;;1.29;100.00;98823.00;5014129;28;20027;-76
2023/03/09 00:19:26;;;;;;;21.48;19.27;;;;;;;1.28;100.00;98790.19;5032717;28;20464;-77
2023/03/09 00:21:56;;;;;;;21.73;19.05;;;;;;;1.28;100.00;98824.84;5033282;28;20082;-75
2023/03/09 00:24:26;;;;;;;22.60;20.27;;;;;;;1.22;100.00;98852.34;5021497;28;20092;-76
2023/03/09 00:26:58;;;;;;;22.95;20.45;;;;;;;1.22;100.00;98858.50;5009703;28;20103;-76
2023/03/09 00:29:25;;;;;;;21.67;19.38;;;;;;;1.23;100.00;98865.44;5014950;28;20029;-76
2023/03/09 00:31:52;;;;;;;23.48;21.08;;;;;;;1.18;100.00;98870.59;5033070;28;20029;-76
2023/03/09 00:34:18;;;;;;;25.65;21.33;;;;;;;1.18;100.00;98883.91;5005795;28;20034;-75
2023/03/09 00:36:46;;;;;;;23.63;21.13;;;;;;;1.26;100.00;98887.38;5006709;28;20048;-75
2023/03/09 00:39:13;;;;;;;23.88;21.38;;;;;;;1.16;100.00;98887.81;5032445;28;20037;-76
2023/03/09 00:41:39;;;;;;;23.65;21.13;;;;;;;1.16;100.00;98886.00;5012971;28;20029;-76
2023/03/09 00:44:05;;;;;;;24.35;20.20;;;;;;;1.17;100.00;98887.59;5025562;28;20168;-76
2023/03/09 00:46:32;;;;;;;23.33;20.77;;;;;;;1.20;100.00;98895.19;5012558;28;20432;-76
2023/03/09 00:48:58;;;;;;;25.05;22.45;;;;;;;1.15;100.00;98896.88;5017294;28;20033;-76
2023/03/09 00:51:24;;;;;;;24.67;21.98;;;;;;;1.12;100.00;98898.09;5032276;28;20044;-75
2023/03/09 00:53:49;;;;;;;23.77;21.13;;;;;;;1.16;100.00;98899.31;5031153;28;20034;-75
2023/03/09 00:56:19;;;;;;;23.30;20.75;;;;;;;1.17;100.00;98900.13;5032224;28;20025;-76
2023/03/09 00:58:45;;;;;;;24.10;21.17;;;;;;;1.18;100.00;98910.56;5029836;28;20033;-76
2023/03/09 01:01:12;;;;;;;24.55;21.58;;;;;;;1.16;100.00;98920.63;5029895;28;20469;-76
2023/03/09 01:03:37;;;;;;;24.58;21.98;;;;;;;1.15;100.00;98920.84;5030822;28;20037;-75
2023/03/09 01:06:04;;;;;;;24.40;21.40;;;;;;;1.17;100.00;98924.91;5030974;28;20034;-76
2023/03/09 01:08:30;;;;;;;24.00;21.40;;;;;;;1.17;100.00;98932.91;5032176;28;20025;-76
2023/03/09 01:10:56;;;;;;;24.30;21.70;;;;;;;1.18;100.00;98953.19;5032354;28;20476;-76
2023/03/09 01:13:21;;;;;;;23.67;21.17;;;;;;;1.24;100.00;98979.00;5012727;28;20036;-76
2023/03/09 01:15:47;;;;;;;23.25;20.65;;;;;;;1.22;100.00;98986.38;5028704;28;20029;-76
2023/03/09 01:18:12;;;;;;;22.77;20.23;;;;;;;1.23;100.00;98977.34;4997778;28;20033;-76
2023/03/09 01:20:38;;;;;;;22.83;20.25;;;;;;;1.20;100.00;98964.44;5012017;28;20030;-76
2023/03/09 01:23:03;;;;;;;22.50;20.10;;;;;;;1.24;100.00;98962.19;5012539;28;20048;-76
2023/03/09 01:25:29;;;;;;;22.75;19.73;;;;;;;1.23;100.00;98961.38;5011582;28;20504;-76
2023/03/09 01:27:54;;;;;;;24.38;21.77;;;;;;;1.26;100.00;98970.78;5015478;28;20049;-76
2023/03/09 01:30:20;;;;;;;24.33;21.83;;;;;;;1.23;100.00;98982.69;5013268;28;20061;-76
2023/03/09 01:32:45;;;;;;;22.98;20.45;;;;;;;1.27;100.00;98990.25;5014379;28;20029;-76
2023/03/09 01:35:14;;;;;;;23.63;21.23;;;;;;;1.25;100.00;99009.13;4999576;28;20030;-76
2023/03/09 01:37:39;;;;;;;22.50;20.02;;;;;;;1.29;100.00;98999.69;5024310;28;20504;-76
2023/03/09 01:40:06;;;;;;;23.77;21.27;;;;;;;1.21;100.00;98992.75;5014365;28;20033;-76
2023/03/09 01:42:35;;;;;;;23.42;20.92;;;;;;;1.27;100.00;99011.56;5032055;28;20033;-76
2023/03/09 01:45:18;;;;;;;22.65;19.92;;;;;;;1.35;100.00;98995.38;5018809;28;20486;-76
2023/03/09 01:47:44;;;;;;;24.33;21.73;;;;;;;1.30;100.00;98995.16;5028059;28;20489;-76
2023/03/09 01:50:11;;;;;;;22.30;19.45;;;;;;;1.32;100.00;98993.94;5014310;28;20112;-76
2023/03/09 01:52:38;;;;;;;24.98;20.63;;;;;;;1.30;100.00;98998.66;5013987;28;20030;-76
2023/03/09 01:55:08;;;;;;;25.00;22.40;;;;;;;1.29;100.00;99014.88;5018787;28;20054;-76
2023/03/09 01:57:39;;;;;;;25.02;20.70;;;;;;;1.29;100.00;99020.19;5012303;28;20080;-76
2023/03/09 02:00:12;;;;;;;25.17;22.20;;;;;;;1.29;100.00;99018.34;4994463;28;20026;-76
2023/03/09 02:02:47;;;;;;;23.13;20.70;;;;;;;1.33;100.00;99021.38;5027086;28;20068;-76
2023/03/09 02:05:36;;;;;;;23.90;21.35;;;;;;;1.40;100.00;99040.84;5016924;28;20045;-76
2023/03/09 02:08:02;;;;;;;23.85;20.60;;;;;;;1.38;100.00;99040.25;5012266;28;20084;-76
2023/03/09 02:10:35;;;;;;;25.85;22.70;;;;;;;1.35;100.00;99046.00;5001322;28;20037;-76
2023/03/09 02:13:07;;;;;;;25.20;22.50;;;;;;;1.38;100.00;99048.25;5016144;28;20049;-76
2023/03/09 02:15:33;;;;;;;25.67;21.52;;;;;;;1.40;100.00;99038.19;5017357;28;20057;-76
2023/03/09 02:17:58;;;;;;;25.83;23.02;;;;;;;1.38;100.00;99027.72;5035323;28;20091;-76
2023/03/09 02:20:36;;;;;;;26.55;23.85;;;;;;;1.42;100.00;99026.28;5015427;28;20469;-76
2023/03/09 02:23:03;;;;;;;25.38;22.67;;;;;;;1.43;100.00;99019.09;5016280;28;20034;-76
2023/03/09 02:25:40;;;;;;;27.92;25.02;;;;;;;1.44;100.00;99031.41;5014375;28;20029;-76
2023/03/09 02:28:06;;;;;;;25.33;22.13;;;;;;;1.44;100.00;99028.75;5035090;28;20029;-76
2023/03/09 02:30:37;;;;;;;25.80;23.08;;;;;;;1.44;100.00;99031.41;5012712;28;20104;-76
2023/03/09 02:33:09;;;;;;;25.65;22.73;;;;;;;1.47;100.00;99040.84;5013900;28;20489;-76
2023/03/09 02:35:34;;;;;;;27.55;24.55;;;;;;;1.42;100.00;99049.47;5013699;28;20509;-76
2023/03/09 02:37:59;;;;;;;28.33;25.23;;;;;;;1.38;100.00;99062.38;4997563;28;20038;-76
2023/03/09 02:40:33;;;;;;;27.13;24.23;;;;;;;1.35;100.00;99060.13;5019407;28;20055;-76
2023/03/09 02:43:02;;;;;;;28.45;25.25;;;;;;;1.30;100.00;99061.78;5027703;28;20037;-76
2023/03/09 02:45:28;;;;;;;29.33;24.85;;;;;;;1.34;100.00;99057.69;5034476;28;20030;-76
2023/03/09 02:47:55;;;;;;;30.10;26.95;;;;;;;1.29;100.00;99060.16;5014174;28;20053;-76
2023/03/09 02:50:20;;;;;;;28.85;24.55;;;;;;;1.30;100.00;99062.63;5034666;28;20067;-76
2023/03/09 02:52:46;;;;;;;29.30;24.60;;;;;;;1.30;100.00;99059.13;5033127;28;20132;-76
2023/03/09 02:55:11;;;;;;;29.58;26.38;;;;;;;1.32;100.00;99065.06;5034382;28;20037;-76
2023/03/09 02:57:38;;;;;;;28.88;25.67;;;;;;;1.36;100.00;99066.28;5024201;28;20470;-76
2023/03/09 03:00:08;;;;;;;27.50;24.13;;;;;;;1.37;100.00;99065.25;5014685;28;20478;-76
2023/03/09 03:02:34;;;;;;;30.08;25.38;;;;;;;1.33;100.00;99048.88;5021707;28;20381;-76
2023/03/09 03:04:59;;;;;;;28.30;25.20;;;;;;;1.36;100.00;99050.28;5016704;28;20033;-76
2023/03/09 03:07:25;;;;;;;28.77;25.65;;;;;;;1.38;100.00;99061.56;5006578;28;20113;-76
2023/03/09 03:09:50;;;;;;;27.60;23.52;;;;;;;1.38;100.00;99064.22;5016532;28;20029;-76
2023/03/09 03:12:16;;;;;;;28.42;24.48;;;;;;;1.36;100.00;99061.78;5016464;28;20033;-76
2023/03/09 03:14:41;;;;;;;30.27;25.63;;;;;;;1.40;100.00;99067.50;5030635;28;20061;-76
2023/03/09 03:17:07;;;;;;;27.52;23.95;;;;;;;1.39;100.00;99064.03;5016512;28;20033;-76
2023/03/09 03:19:32;;;;;;;31.13;25.02;;;;;;;1.41;100.00;99066.47;5033630;28;20036;-76
2023/03/09 03:21:57;;;;;;;28.65;25.55;;;;;;;1.40;100.00;99070.16;5032173;28;20040;-76
2023/03/09 03:24:23;;;;;;;28.50;25.50;;;;;;;1.41;100.00;99069.16;5032745;28;20041;-76
2023/03/09 03:26:48;;;;;;;30.15;25.27;;;;;;;1.37;100.00;99074.06;5033763;28;20100;-76
2023/03/09 03:29:14;;;;;;;29.52;26.15;;;;;;;1.38;100.00;99082.91;5014238;28;20076;-76
2023/03/09 03:31:39;;;;;;;31.90;27.20;;;;;;;1.34;100.00;99082.47;5031104;28;20108;-76
2023/03/09 03:34:04;;;;;;;30.73;25.80;;;;;;;1.39;100.00;99097.88;5013620;28;20033;-76
2023/03/09 03:36:30;;;;;;;30.65;27.35;;;;;;;1.33;100.00;99115.50;5013839;28;20037;-76
2023/03/09 03:38:55;;;;;;;32.17;28.08;;;;;;;1.34;100.00;99134.97;4996403;28;20453;-76
2023/03/09 03:41:20;;;;;;;32.35;27.45;;;;;;;1.38;100.00;99138.84;5013677;28;20040;-76
2023/03/09 03:43:46;;;;;;;31.23;27.27;;;;;;;1.40;100.00;99136.78;5011298;28;20039;-76
2023/03/09 03:46:11;;;;;;;30.85;26.35;;;;;;;1.42;100.00;99145.44;5033539;28;20124;-76
2023/03/09 03:48:37;;;;;;;33.05;28.52;;;;;;;1.44;100.00;99142.56;5033107;28;20026;-76
2023/03/09 03:51:03;;;;;;;31.73;26.52;;;;;;;1.45;100.00;99144.16;5015716;28;20033;-76
2023/03/09 03:53:28;;;;;;;32.17;27.65;;;;;;;1.46;100.00;99138.63;4998365;28;20480;-77
2023/03/09 03:55:54;;;;;;;35.63;29.48;;;;;;;1.44;100.00;99135.38;5013976;28;20040;-76
2023/03/09 03:58:19;;;;;;;34.85;28.15;;;;;;;1.46;100.00;99143.16;4996036;28;20446;-77
2023/03/09 04:00:44;;;;;;;35.72;30.05;;;;;;;1.39;100.00;99143.19;5005974;28;20032;-77
2023/03/09 04:03:10;;;;;;;35.78;29.42;;;;;;;1.38;100.00;99141.53;5033171;28;20108;-76
2023/03/09 04:05:35;;;;;;;35.65;30.38;;;;;;;1.38;100.00;99144.19;5030628;28;20029;-76
2023/03/09 04:08:00;;;;;;;37.25;31.13;;;;;;;1.37;100.00;99146.00;5031344;28;20428;-76
2023/03/09 04:10:26;;;;;;;35.60;30.80;;;;;;;1.40;100.00;99140.31;5031574;28;20072;-76
2023/03/09 04:12:52;;;;;;;36.55;32.00;;;;;;;1.43;100.00;99147.03;5031602;28;20522;-76
2023/03/09 04:15:19;;;;;;;35.88;29.77;;;;;;;1.38;100.00;99155.66;5015389;28;20030;-76
2023/03/09 04:17:47;;;;;;;39.20;31.35;;;;;;;1.41;100.00;99159.78;5015021;28;20026;-76
2023/03/09 04:20:13;;;;;;;37.83;32.90;;;;;;;1.36;100.00;99163.06;5031146;28;20112;-76
2023/03/09 04:22:38;;;;;;;38.38;31.15;;;;;;;1.37;100.00;99169.19;5013380;28;20113;-76
2023/03/09 04:25:04;;;;;;;38.38;33.33;;;;;;;1.31;100.00;99172.69;5013625;28;20122;-76
2023/03/09 04:27:29;;;;;;;39.78;31.15;;;;;;;1.32;100.00;99171.66;5003753;28;20042;-76
2023/03/09 04:29:55;;;;;;;38.83;33.90;;;;;;;1.30;100.00;99169.22;5028355;28;20513;-76
2023/03/09 04:32:20;;;;;;;41.20;31.45;;;;;;;1.34;100.00;99175.75;5012771;28;20108;-76
2023/03/09 04:34:45;;;;;;;39.30;32.00;;;;;;;1.35;100.00;99181.91;5026215;28;20029;-76
2023/03/09 04:37:11;;;;;;;42.25;35.92;;;;;;;1.34;100.00;99182.94;5013005;28;20631;-76
2023/03/09 04:39:37;;;;;;;42.05;34.25;;;;;;;1.32;100.00;99179.66;5031756;28;20048;-76
2023/03/09 04:42:02;;;;;;;45.55;32.95;;;;;;;1.31;100.00;99186.81;5032977;28;20065;-76
2023/03/09 04:44:28;;;;;;;44.03;36.15;;;;;;;1.30;100.00;99195.03;5014646;28;20579;-76
2023/03/09 04:46:55;;;;;;;42.33;33.13;;;;;;;1.28;100.00;99203.22;5016581;28;20025;-76
2023/03/09 04:49:21;;;;;;;41.08;35.38;;;;;;;1.29;100.00;99196.06;5013372;28;20040;-76
2023/03/09 04:51:47;;;;;;;43.70;33.75;;;;;;;1.33;100.00;99199.94;5029212;28;20120;-76
2023/03/09 04:54:12;;;;;;;41.35;35.53;;;;;;;1.31;100.00;99207.34;5014673;28;20469;-76
2023/03/09 04:56:38;;;;;;;43.10;33.13;;;;;;;1.30;100.00;99208.34;5019945;28;20117;-76
2023/03/09 04:59:03;;;;;;;45.80;36.30;;;;;;;1.26;100.00;99209.81;5012763;28;20065;-76
2023/03/09 05:01:29;;;;;;;48.28;35.13;;;;;;;1.28;100.00;99213.06;5019560;28;20030;-76
2023/03/09 05:03:54;;;;;;;46.55;34.83;;;;;;;1.27;100.00;99206.94;5014256;28;20076;-76
2023/03/09 05:06:19;;;;;;;46.67;36.60;;;;;;;1.28;100.00;99221.06;5005319;28;20030;-76
2023/03/09 05:08:45;;;;;;;48.83;35.72;;;;;;;1.30;100.00;99213.69;5027660;28;20038;-76
2023/03/09 05:11:10;;;;;;;45.92;36.20;;;;;;;1.30;100.00;99224.34;5027816;28;20093;-76
2023/03/09 05:13:35;;;;;;;52.05;40.05;;;;;;;1.28;100.00;99229.88;5012135;28;20457;-76
2023/03/09 05:16:07;;;;;;;48.78;38.05;;;;;;;1.29;100.00;99244.03;5012802;28;20104;-77
2023/03/09 05:18:33;;;;;;;50.47;41.10;;;;;;;1.30;100.00;99245.66;5012592;28;20389;-76
2023/03/09 05:20:58;;;;;;;47.95;36.60;;;;;;;1.26;100.00;99260.44;5012625;28;20037;-76
2023/03/09 05:23:23;;;;;;;50.55;40.20;;;;;;;1.21;100.00;99261.84;5012611;28;20030;-77
2023/03/09 05:25:57;;;;;;;52.45;39.85;;;;;;;1.29;100.00;99266.16;5008823;28;20056;-76
2023/03/09 05:28:24;;;;;;;56.10;41.00;;;;;;;1.31;100.00;99258.78;4992877;28;20069;-77
2023/03/09 05:30:50;;;;;;;62.45;46.63;;;;;;;1.33;100.00;99250.56;5000334;28;20080;-77
2023/03/09 05:33:15;;;;;;;58.53;41.28;;;;;;;1.39;100.00;99257.78;5012413;28;20029;-76
2023/03/09 05:35:41;;;;;;;59.10;41.88;;;;;;;1.37;100.00;99257.16;5008343;28;20486;-76
2023/03/09 05:38:06;;;;;;;59.72;44.13;;;;;;;1.36;100.00;99264.34;4990872;28;20518;-76
2023/03/09 05:40:31;;;;;;;65.38;46.25;;;;;;;1.40;100.00;99270.06;4992771;28;20041;-77
2023/03/09 05:42:57;;;;;;;80.05;51.58;;;;;;;1.40;100.00;99264.72;4992293;28;20114;-78
2023/03/09 05:45:22;;;;;;;150.40;86.55;;;;;;;1.41;100.00;99253.06;4992309;28;20395;-78
2023/03/09 05:47:47;;;;;;;97.63;69.85;;;;;;;1.41;100.00;99250.41;4986964;28;20033;-77
2023/03/09 05:50:13;;;;;;;65.13;46.80;;;;;;;1.43;100.00;99253.66;4998382;28;20092;-77
2023/03/09 05:52:38;;;;;;;60.17;45.45;;;;;;;1.41;100.00;99250.41;4997772;28;20137;-78
2023/03/09 05:55:04;;;;;;;56.20;41.75;;;;;;;1.45;100.00;99264.13;5015958;28;20021;-77
2023/03/09 05:57:30;;;;;;;59.70;44.70;;;;;;;1.44;100.00;99273.97;4998035;28;20390;-78
2023/03/09 05:59:55;;;;;;;61.63;47.70;;;;;;;1.46;100.00;99289.75;4995904;28;20041;-78
2023/03/09 06:02:20;;;;;;;57.33;42.65;;;;;;;1.41;100.00;99279.72;4983615;28;20410;-77
2023/03/09 06:04:51;;;;;;;59.70;43.72;;;;;;;1.47;100.00;99286.88;5015612;28;20436;-77
2023/03/09 06:07:20;;;;;;;64.70;47.20;;;;;;;1.42;100.00;99284.03;4999543;28;20642;-78
2023/03/09 06:09:45;;;;;;;62.92;45.83;;;;;;;1.44;100.00;99286.50;4995867;28;20478;-77
2023/03/09 06:29:45;;;;;;;57.25;39.53;;;;;;;1.59;100.00;99313.78;4861126;29;20064;-77
2023/03/09 06:55:31;;;;;;;55.63;39.20;;;;;;;1.54;100.00;99361.53;4885328;29;20092;-77
2023/03/09 06:57:56;;;;;;;55.03;39.28;;;;;;;1.54;100.00;99366.88;4896271;29;20032;-78
2023/03/09 07:04:31;;;;;;;55.05;38.97;;;;;;;1.69;100.00;99375.53;4934006;29;20557;-77
2023/03/09 08:40:32;;;;;;;53.33;37.72;;;;;;;2.00;100.00;99536.03;4933280;29;20574;-78
2023/03/09 08:42:57;;;;;;;51.72;36.95;;;;;;;2.04;100.00;99542.59;4975338;28;20039;-79
2023/03/09 08:45:23;;;;;;;54.25;41.20;;;;;;;2.02;100.00;99542.78;4998955;28;20444;-78
2023/03/09 08:47:49;;;;;;;53.88;37.22;;;;;;;2.01;100.00;99533.16;4995422;28;20045;-76
2023/03/09 08:50:15;;;;;;;54.35;39.10;;;;;;;2.05;100.00;99528.25;5021398;28;20041;-75
2023/03/09 08:52:43;;;;;;;51.75;39.08;;;;;;;2.08;100.00;99550.03;5015013;28;20021;-74
2023/03/09 08:58:03;;;;;;;;;;;;;;;2.29;100.00;99572.22;5005866;28;20357;-80
2023/03/09 09:00:51;;;;;;;;;;;;;;;;;;;;;
2023/03/09 09:13:18;;;;;;;53.05;36.33;;;;;;;2.27;100.00;99583.09;4952918;29;20090;-79
2023/03/09 09:16:44;;;;;;;;;;;;;;;;;;;;;
2023/03/09 09:26:47;;;;;;;55.10;36.97;;;;;;;2.42;100.00;99576.78;4865601;29;20042;-80
2023/03/09 09:29:52;;;;;;;53.40;36.47;;;;;;;2.47;100.00;99585.00;4842610;29;20054;-81
2023/03/09 09:32:50;;;;;;;53.28;36.75;;;;;;;2.57;100.00;99585.44;4932919;28;20106;-78
2023/03/09 09:35:19;;;;;;;50.92;35.47;;;;;;;2.57;100.00;99593.44;4981421;28;20117;-85
2023/03/09 09:37:46;;;;;;;51.78;38.38;;;;;;;2.57;100.00;99600.63;5033238;28;20114;-79
2023/03/09 09:51:36;;;;;;;;;;;;;;;;;;;;;
2023/03/09 10:07:54;;;;;;;57.08;39.58;;;;;;;2.80;100.00;99605.59;4880235;29;20036;-78
2023/03/09 10:10:57;;;;;;;61.08;42.83;;;;;;;2.90;100.00;99614.03;4932819;29;20059;-78
2023/03/09 10:17:36;;;;;;;56.33;39.88;;;;;;;2.94;100.00;99623.25;4916862;29;20159;-79
2023/03/09 10:21:12;;;;;;;;;;;;;;;;;;;;;
2023/03/09 10:28:24;;;;;;;60.40;42.17;;;;;;;3.01;100.00;99610.72;4974540;28;20473;-79
2023/03/09 10:31:07;;;;;;;58.08;38.95;;;;;;;3.09;100.00;99601.66;4900366;29;20059;-78
2023/03/09 10:33:33;;;;;;;55.58;42.00;;;;;;;3.16;100.00;99607.84;4899227;29;20055;-76
2023/03/09 10:36:33;;;;;;;;;;;;;;;;;;;;;
2023/03/09 10:39:39;;;;;;;50.75;39.28;;;;;;;3.17;100.00;99600.63;4973451;28;20070;-78
2023/03/09 10:42:17;;;;;;;54.22;40.60;;;;;;;3.24;100.00;99612.13;4957033;28;20026;-78
2023/03/09 10:44:53;;;;;;;53.78;39.97;;;;;;;3.24;100.00;99611.31;4980325;28;20054;-79
2023/03/09 10:47:19;;;;;;;53.40;38.90;;;;;;;3.25;100.00;99611.13;5014956;28;20096;-79
2023/03/09 10:50:11;;;;;;;51.92;39.10;;;;;;;3.34;100.00;99615.22;5029355;28;20021;-77
2023/03/09 10:52:36;;;;;;;;;;;;;;;3.51;100.00;99622.81;5033900;28;20029;-78
2023/03/09 10:55:34;;;;;;;49.28;34.80;;;;;;;3.41;100.00;99612.53;5034195;28;20254;-79
2023/03/09 11:01:05;;;;;;;;;;;;;;;;;;;;;
2023/03/09 11:07:17;;;;;;;52.28;35.90;;;;;;;3.58;100.00;99612.06;5033873;28;20044;-77
2023/03/09 11:09:42;;;;;;;49.03;37.50;;;;;;;3.61;100.00;99615.19;5034506;28;20040;-77
2023/03/09 11:16:53;;;;;;;49.40;37.15;;;;;;;3.67;100.00;99613.53;5009493;28;20045;-79
2023/03/09 11:26:25;;;;;;;50.90;37.63;;;;;;;3.69;100.00;99606.91;4991539;28;20060;-78
2023/03/09 11:29:32;;;;;;;47.80;36.30;;;;;;;3.80;100.00;99604.63;4993236;28;20038;-77
2023/03/09 11:31:58;;;;;;;50.10;37.10;;;;;;;3.75;100.00;99607.13;5011546;28;20045;-80
2023/03/09 11:34:34;;;;;;;51.88;37.45;;;;;;;3.71;100.00;99602.19;5011440;28;20034;-76
2023/03/09 11:37:16;;;;;;;49.25;37.63;;;;;;;3.82;100.00;99602.53;4991933;28;20033;-76
2023/03/09 11:39:53;;;;;;;49.08;35.40;;;;;;;3.77;100.00;99594.34;4995040;28;20061;-76
2023/03/09 11:42:31;;;;;;;51.65;37.90;;;;;;;3.78;100.00;99596.00;5009047;28;20042;-77
2023/03/09 11:44:56;;;;;;;51.13;37.40;;;;;;;3.78;100.00;99596.81;5030834;28;20045;-79
2023/03/09 11:47:33;;;;;;;52.38;36.97;;;;;;;3.77;100.00;99605.84;5015591;28;20033;-74
2023/03/09 11:50:17;;;;;;;51.80;36.60;;;;;;;3.77;100.00;99615.75;5033194;28;20033;-78
2023/03/09 11:52:49;;;;;;;51.13;37.38;;;;;;;3.72;100.00;99609.16;5015522;28;20076;-74
2023/03/09 11:55:22;;;;;;;50.55;37.08;;;;;;;3.68;100.00;99607.97;5033367;28;20029;-76
2023/03/09 11:57:54;;;;;;;49.97;37.00;;;;;;;3.68;100.00;99607.13;5027630;28;20030;-74
2023/03/09 12:00:21;;;;;;;49.33;36.50;;;;;;;3.70;100.00;99607.75;5015441;28;20038;-71
2023/03/09 12:03:05;;;;;;;51.80;38.40;;;;;;;3.72;100.00;99603.81;5031362;28;20034;-76
2023/03/09 12:05:37;;;;;;;51.10;37.78;;;;;;;3.70;100.00;99602.41;5033466;28;20029;-74
2023/03/09 12:08:16;;;;;;;51.97;36.88;;;;;;;3.77;100.00;99605.03;5033117;28;20076;-75
2023/03/09 12:10:52;;;;;;;48.33;34.65;;;;;;;3.80;100.00;99604.63;5014690;28;20409;-72
2023/03/09 12:13:33;;;;;;;49.22;35.78;;;;;;;3.83;100.00;99604.19;4995441;28;20029;-72
2023/03/09 12:16:14;;;;;;;50.95;36.20;;;;;;;3.86;100.00;99595.75;5012818;28;20030;-73
2023/03/09 12:19:09;;;;;;;51.00;37.03;;;;;;;3.92;100.00;99586.88;5013088;28;20025;-75
2023/03/09 12:21:37;;;;;;;50.38;37.45;;;;;;;3.91;100.00;99587.91;5013123;28;20030;-74
2023/03/09 12:24:21;;;;;;;49.95;36.53;;;;;;;3.96;100.00;99585.41;5012841;28;20497;-74
2023/03/09 12:26:58;;;;;;;48.60;35.40;;;;;;;3.90;100.00;99576.38;5013247;28;20056;-75
2023/03/09 12:29:30;;;;;;;44.97;34.08;;;;;;;3.90;100.00;99581.72;5013067;28;20033;-76
2023/03/09 12:32:31;;;;;;;45.92;35.05;;;;;;;3.96;100.00;99574.69;5015939;28;20037;-73
2023/03/09 12:35:00;;;;;;;49.22;34.72;;;;;;;3.91;100.00;99577.22;5015189;28;20037;-73
2023/03/09 12:37:28;;;;;;;46.17;33.33;;;;;;;3.89;100.00;99576.59;5031145;28;20021;-73
2023/03/09 12:40:15;;;;;;;42.97;33.50;;;;;;;3.97;100.00;99567.47;4994723;28;20049;-74
2023/03/09 12:42:43;;;;;;;42.78;32.88;;;;;;;3.99;100.00;99557.41;5013016;28;20477;-74
2023/03/09 12:45:14;;;;;;;42.72;31.83;;;;;;;3.96;100.00;99558.66;5012890;28;20073;-73
2023/03/09 12:47:47;;;;;;;44.60;32.38;;;;;;;4.01;100.00;99542.75;5012971;28;20029;-75
2023/03/09 12:50:31;;;;;;;46.97;34.33;;;;;;;4.06;100.00;99518.84;5011871;28;20065;-75
2023/03/09 12:53:15;;;;;;;44.80;32.63;;;;;;;4.04;100.00;99523.59;5012898;28;20045;-75
2023/03/09 12:55:53;;;;;;;42.97;30.63;;;;;;;4.06;100.00;99516.19;5013689;28;20040;-76
2023/03/09 12:58:19;;;;;;;41.35;31.17;;;;;;;4.05;100.00;99519.06;5012793;28;20084;-75
2023/03/09 13:00:56;;;;;;;43.88;30.92;;;;;;;4.08;100.00;99516.78;4992977;28;20114;-75
2023/03/09 13:03:34;;;;;;;41.75;31.17;;;;;;;4.07;100.00;99509.75;5012649;28;20116;-75
2023/03/09 13:06:03;;;;;;;40.97;30.10;;;;;;;4.05;100.00;99506.50;5010296;28;20040;-75
2023/03/09 13:08:36;;;;;;;41.03;30.25;;;;;;;4.10;100.00;99499.69;5005092;28;20075;-75
2023/03/09 13:11:23;;;;;;;41.22;30.88;;;;;;;4.12;100.00;99501.09;4994624;28;20026;-75
2023/03/09 13:13:49;;;;;;;41.20;31.55;;;;;;;4.04;100.00;99488.78;5018534;28;20030;-75
2023/03/09 13:16:34;;;;;;;49.13;29.70;;;;;;;4.10;100.00;99502.34;5026719;28;20029;-74
2023/03/09 13:19:17;;;;;;;43.45;29.50;;;;;;;4.08;100.00;99510.59;5028690;28;20026;-75
2023/03/09 13:22:01;;;;;;;38.47;26.73;;;;;;;4.06;100.00;99513.50;4994932;28;20440;-75
2023/03/09 13:24:38;;;;;;;40.17;28.38;;;;;;;4.04;100.00;99512.06;5005774;28;20037;-76
2023/03/09 13:27:03;;;;;;;38.05;27.63;;;;;;;4.06;100.00;99508.16;5002979;28;20424;-77
2023/03/09 13:29:30;;;;;;;38.35;27.77;;;;;;;4.03;100.00;99508.56;5014270;28;20029;-78
2023/03/09 13:31:56;;;;;;;33.28;25.48;;;;;;;4.02;100.00;99509.59;5030460;28;20520;-75
2023/03/09 13:34:32;;;;;;;34.42;25.63;;;;;;;3.96;100.00;99497.09;5022393;28;20085;-74
2023/03/09 13:37:07;;;;;;;34.58;25.13;;;;;;;3.95;100.00;99500.78;5014305;28;20464;-74
2023/03/09 13:39:32;;;;;;;36.33;26.00;;;;;;;3.94;100.00;99507.19;5027382;28;20037;-72
2023/03/09 13:42:04;;;;;;;35.70;26.70;;;;;;;3.93;100.00;99510.91;5017521;28;20034;-73
2023/03/09 13:44:30;;;;;;;35.58;25.77;;;;;;;3.95;100.00;99503.47;5023771;28;20049;-74
2023/03/09 13:46:57;;;;;;;32.95;24.77;;;;;;;3.97;100.00;99493.38;5022925;28;20041;-73
2023/03/09 13:49:32;;;;;;;36.45;26.63;;;;;;;3.98;100.00;99491.50;5018057;28;20461;-73
2023/03/09 13:52:06;;;;;;;35.42;25.73;;;;;;;4.00;100.00;99487.59;4992795;28;20073;-72
2023/03/09 13:54:36;;;;;;;36.38;25.92;;;;;;;3.97;100.00;99482.66;4992377;28;20038;-73
2023/03/09 13:57:15;;;;;;;32.13;23.15;;;;;;;4.03;100.00;99471.09;4991392;28;20038;-73
2023/03/09 14:00:04;;;;;;;32.08;23.38;;;;;;;4.05;100.00;99468.22;4997170;28;20029;-72
2023/03/09 14:02:33;;;;;;;28.67;20.15;;;;;;;4.02;100.00;99458.75;4987543;28;20389;-72
2023/03/09 14:04:58;;;;;;;26.52;19.67;;;;;;;4.02;100.00;99463.28;4994510;28;20389;-74
2023/03/09 14:07:52;;;;;;;26.77;19.63;;;;;;;4.02;100.00;99449.91;5010463;28;20022;-73
2023/03/09 14:10:34;;;;;;;26.77;20.15;;;;;;;4.04;100.00;99459.34;5031421;28;20120;-74
2023/03/09 14:12:59;;;;;;;;;;;;;;;4.20;100.00;99441.13;5035756;28;20040;-74
2023/03/09 14:15:25;;;;;;;26.45;19.85;;;;;;;4.11;100.00;99458.47;5024582;28;19917;-73
2023/03/09 14:17:52;;;;;;;29.88;20.65;;;;;;;4.14;100.00;99442.00;4997912;28;20056;-73
2023/03/09 14:20:22;;;;;;;30.75;22.38;;;;;;;4.17;100.00;99431.66;5013995;28;20491;-72
2023/03/09 14:22:47;;;;;;;29.67;21.80;;;;;;;4.15;100.00;99423.03;5017858;28;20433;-74
2023/03/09 14:25:31;;;;;;;32.22;22.00;;;;;;;4.21;100.00;99415.97;5014023;28;20065;-77
2023/03/09 14:27:59;;;;;;;29.35;21.48;;;;;;;4.20;100.00;99425.06;5030830;28;20120;-74
2023/03/09 14:31:06;;;;;;;30.52;22.17;;;;;;;4.23;100.00;99424.63;5017099;28;20034;-77
2023/03/09 14:33:32;;;;;;;31.05;22.08;;;;;;;4.19;100.00;99428.75;5017069;28;20033;-74
2023/03/09 14:36:05;;;;;;;29.50;20.83;;;;;;;4.23;100.00;99438.00;5017468;28;20021;-74
2023/03/09 14:38:30;;;;;;;28.92;20.98;;;;;;;4.18;100.00;99424.44;5012707;28;20040;-74
2023/03/09 14:41:02;;;;;;;30.17;21.10;;;;;;;4.22;100.00;99425.66;5023379;28;20029;-74
2023/03/09 14:43:33;;;;;;;28.58;20.13;;;;;;;4.26;100.00;99437.56;5034392;28;20045;-74
2023/03/09 14:46:13;;;;;;;28.03;20.03;;;;;;;4.30;100.00;99441.44;5017027;28;20361;-74
2023/03/09 14:48:39;;;;;;;26.55;18.95;;;;;;;4.24;100.00;99424.41;5016944;28;20632;-75
2023/03/09 14:51:12;;;;;;;25.80;19.33;;;;;;;4.22;100.00;99431.00;5034920;28;20064;-75
2023/03/09 14:53:56;;;;;;;25.83;18.77;;;;;;;4.23;100.00;99433.47;5033364;28;20488;-75
2023/03/09 14:56:22;;;;;;;26.38;19.25;;;;;;;4.30;100.00;99409.31;5003632;28;20472;-75
2023/03/09 14:58:48;;;;;;;28.25;19.67;;;;;;;4.27;100.00;99423.13;5021685;28;20108;-74
2023/03/09 15:01:14;;;;;;;26.63;19.92;;;;;;;4.26;100.00;99426.88;5008118;28;20116;-73
2023/03/09 15:03:40;;;;;;;29.92;20.08;;;;;;;4.25;100.00;99417.19;5034252;28;20094;-75
2023/03/09 15:06:05;;;;;;;27.15;19.98;;;;;;;4.28;100.00;99397.19;5016778;28;20443;-75
2023/03/09 15:08:31;;;;;;;26.45;19.27;;;;;;;4.31;100.00;99410.94;5034095;28;20032;-73
2023/03/09 15:10:59;;;;;;;26.27;19.60;;;;;;;4.32;100.00;99409.91;5034224;28;20034;-74
2023/03/09 15:13:25;;;;;;;25.83;19.20;;;;;;;4.38;100.00;99400.19;5034326;28;20029;-75
2023/03/09 15:15:50;;;;;;;28.95;20.10;;;;;;;4.34;100.00;99382.91;5028101;28;20480;-74